Time;durP1;ratioP1;P1;durP2;ratioP2;P2;SDS_P1;SDS_P2;PMS_P1;PMS_P2;Temp;Humidity;BMP_temperature;BMP_pressure;BME280_temperature;BME280_humidity;BME280_pressure;Samples;Min_cycle;Max_cycle;Signal;HPM_P1;HPM_P2
2022/05/07 00:00:55;;;;;;;1.75;1.13;;;16.70;61.00;;;;;;20608436;28;20556;-75
2022/05/07 00:10:56;;;;;;;1.30;0.88;;;16.60;60.90;;;;;;20639285;28;20177;-75
2022/05/07 00:20:56;;;;;;;1.25;0.85;;;16.60;61.00;;;;;;20639818;28;20046;-75
2022/05/07 00:30:57;;;;;;;1.67;1.00;;;16.60;61.00;;;;;;20622810;28;20050;-75
2022/05/07 00:40:59;;;;;;;2.00;1.20;;;16.60;61.00;;;;;;20631798;28;20046;-77
2022/05/07 01:01:18;;;;;;;2.00;1.20;;;16.50;60.90;;;;;;20640580;28;20030;-76
2022/05/07 01:11:19;;;;;;;1.95;1.30;;;16.50;60.90;;;;;;20623829;28;20438;-75
2022/05/07 01:21:23;;;;;;;1.58;1.00;;;16.50;60.90;;;;;;20619182;28;20039;-75
2022/05/07 01:31:27;;;;;;;2.17;1.55;;;16.50;61.00;;;;;;20603081;28;20034;-76
2022/05/07 01:41:28;;;;;;;2.85;1.40;;;16.50;61.00;;;;;;20632358;28;20406;-76
2022/05/07 01:51:29;;;;;;;1.80;1.40;;;16.40;60.90;;;;;;20632873;28;20030;-75
2022/05/07 02:01:30;;;;;;;2.28;1.25;;;16.40;60.90;;;;;;20630846;28;20039;-75
2022/05/07 02:11:30;;;;;;;2.08;1.30;;;16.40;61.00;;;;;;20631839;28;20030;-76
2022/05/07 02:21:32;;;;;;;1.98;1.45;;;16.40;60.90;;;;;;20629366;28;20050;-75
2022/05/07 02:31:33;;;;;;;1.90;1.40;;;16.40;61.00;;;;;;20613132;28;20451;-76
2022/05/07 02:51:52;;;;;;;2.55;1.67;;;16.30;60.90;;;;;;20643157;28;20034;-75
2022/05/07 03:01:54;;;;;;;1.70;1.17;;;16.30;60.90;;;;;;20641554;28;20181;-76
2022/05/07 03:11:54;;;;;;;2.35;1.75;;;16.40;61.00;;;;;;20625945;28;20547;-75
2022/05/07 03:21:59;;;;;;;2.45;1.33;;;16.30;60.90;;;;;;20625126;28;20042;-75
2022/05/07 03:32:02;;;;;;;1.88;1.33;;;16.30;60.90;;;;;;20625079;28;20094;-76
2022/05/07 03:42:03;;;;;;;1.98;1.38;;;16.30;60.90;;;;;;20608637;28;20038;-76
2022/05/07 04:02:23;;;;;;;2.38;1.58;;;16.30;60.90;;;;;;20612690;28;20607;-75
2022/05/07 04:12:29;;;;;;;1.58;1.38;;;16.30;60.90;;;;;;20594126;28;20030;-75
2022/05/07 04:22:34;;;;;;;1.65;1.27;;;16.20;60.80;;;;;;20638235;28;20044;-75
2022/05/07 04:32:35;;;;;;;3.78;1.58;;;16.30;60.90;;;;;;20638017;28;20081;-75
2022/05/07 04:42:38;;;;;;;1.90;1.30;;;16.20;60.80;;;;;;20636947;28;20073;-75
2022/05/07 04:52:40;;;;;;;2.08;1.63;;;16.20;60.80;;;;;;20622434;28;20050;-76
2022/05/07 05:02:41;;;;;;;2.92;1.73;;;16.20;60.80;;;;;;20635764;28;20142;-76
2022/05/07 05:12:47;;;;;;;;;;;16.20;60.70;;;;;;20637156;28;20022;-75
2022/05/07 05:22:48;;;;;;;2.90;2.17;;;16.30;60.70;;;;;;20643572;28;19917;-75
2022/05/07 05:32:50;;;;;;;1.90;1.42;;;16.20;60.60;;;;;;20633451;28;20100;-76
2022/05/07 05:42:51;;;;;;;2.67;1.70;;;16.20;60.60;;;;;;20635410;28;20038;-76
2022/05/07 05:52:51;;;;;;;2.47;1.65;;;16.20;60.60;;;;;;20631698;28;20292;-75
2022/05/07 06:02:53;;;;;;;3.53;2.17;;;16.20;60.60;;;;;;20643594;23;20406;-75
2022/05/07 06:13:00;;;;;;;2.30;1.48;;;16.20;60.50;;;;;;20777062;28;20347;-76
2022/05/07 06:23:01;;;;;;;3.88;1.90;;;16.20;61.20;;;;;;20791536;28;20029;-77
2022/05/07 06:33:09;;;;;;;2.72;1.67;;;16.30;60.70;;;;;;20777750;28;20052;-76
2022/05/07 06:43:16;;;;;;;;;;;16.20;60.60;;;;;;20777523;28;20043;-77
2022/05/07 06:53:38;;;;;;;1.60;1.42;;;16.20;60.60;;;;;;20823502;28;20381;-77
2022/05/07 07:03:39;;;;;;;3.45;2.20;;;16.20;60.70;;;;;;21201852;22;20035;-79
2022/05/07 07:13:41;;;;;;;3.10;1.88;;;16.20;60.70;;;;;;20700651;28;20033;-78
2022/05/07 07:23:41;;;;;;;2.28;1.40;;;16.30;60.80;;;;;;20692436;28;20069;-76
2022/05/07 07:33:43;;;;;;;3.17;1.92;;;16.30;60.90;;;;;;20697912;28;20068;-76
2022/05/07 07:43:45;;;;;;;6.07;2.45;;;16.30;61.10;;;;;;20688564;28;20108;-73
2022/05/07 07:53:46;;;;;;;3.33;1.93;;;16.30;61.20;;;;;;20734079;28;20030;-79
2022/05/07 08:03:47;;;;;;;7.30;2.50;;;16.20;61.30;;;;;;20746554;28;20325;-78
2022/05/07 08:13:48;;;;;;;3.00;2.30;;;16.30;61.50;;;;;;20727520;28;20114;-78
2022/05/07 08:23:48;;;;;;;4.57;2.40;;;16.30;61.70;;;;;;20675112;28;20449;-79
2022/05/07 08:33:50;;;;;;;4.03;2.55;;;16.30;61.90;;;;;;20660303;28;20072;-77
2022/05/07 08:43:50;;;;;;;7.57;2.85;;;16.30;62.10;;;;;;20674225;28;20053;-78
2022/05/07 08:53:53;;;;;;;5.75;2.83;;;16.30;62.20;;;;;;20723541;28;20068;-76
2022/05/07 09:03:53;;;;;;;5.80;2.63;;;16.40;62.40;;;;;;20719732;28;20128;-76
2022/05/07 09:14:04;;;;;;;6.07;2.28;;;16.40;62.60;;;;;;20709350;28;20477;-80
2022/05/07 09:24:06;;;;;;;5.32;2.08;;;16.40;62.60;;;;;;20702050;28;20030;-79
2022/05/07 09:44:33;;;;;;;4.57;2.40;;;16.50;62.60;;;;;;20745046;28;20081;-78
2022/05/07 10:05:03;;;;;;;5.00;1.92;;;16.50;62.50;;;;;;20723310;28;20034;-76
2022/05/07 10:15:07;;;;;;;2.88;1.98;;;16.50;62.40;;;;;;20733111;28;20037;-75
2022/05/07 10:25:12;;;;;;;3.10;1.65;;;16.50;62.30;;;;;;20681806;28;20501;-73
2022/05/07 10:35:14;;;;;;;3.63;1.85;;;16.50;62.20;;;;;;20696480;28;20129;-76
2022/05/07 10:45:21;;;;;;;2.20;1.70;;;16.60;62.10;;;;;;20720969;28;20117;-76
2022/05/07 10:55:26;;;;;;;3.95;2.10;;;16.60;62.00;;;;;;20696608;28;20029;-76
2022/05/07 11:05:33;;;;;;;4.18;1.73;;;16.60;61.90;;;;;;20692453;28;20044;-76
2022/05/07 11:15:33;;;;;;;2.03;1.27;;;16.60;61.80;;;;;;20698450;28;20095;-76
2022/05/07 11:25:34;;;;;;;4.93;1.70;;;16.70;61.80;;;;;;20692364;28;20121;-74
2022/05/07 11:35:35;;;;;;;2.15;1.42;;;16.70;61.70;;;;;;20705333;28;20462;-75
2022/05/07 11:45:37;;;;;;;3.22;1.50;;;16.70;61.60;;;;;;20713437;28;20081;-74
2022/05/07 11:55:37;;;;;;;2.22;1.60;;;16.70;61.60;;;;;;20706147;28;20125;-73
2022/05/07 12:05:42;;;;;;;2.65;1.40;;;16.70;61.50;;;;;;20717757;28;20532;-76
2022/05/07 12:36:22;;;;;;;4.25;1.60;;;16.80;61.20;;;;;;20703851;28;20026;-72
2022/05/07 12:46:24;;;;;;;3.72;1.33;;;16.80;61.10;;;;;;20714680;28;20374;-72
2022/05/07 12:56:24;;;;;;;2.10;1.30;;;16.80;61.00;;;;;;20716365;28;20485;-75
2022/05/07 13:06:25;;;;;;;2.13;1.35;;;16.80;61.10;;;;;;20716584;28;20029;-75
2022/05/07 13:16:25;;;;;;;2.28;1.60;;;16.80;61.20;;;;;;20704386;28;20029;-76
2022/05/07 13:26:26;;;;;;;1.98;1.08;;;16.80;61.20;;;;;;20698695;28;20038;-78
2022/05/07 13:36:26;;;;;;;2.90;1.42;;;16.90;61.20;;;;;;20681149;28;20041;-78
2022/05/07 13:46:27;;;;;;;2.35;1.40;;;16.90;61.10;;;;;;20686923;28;20128;-76
2022/05/07 13:56:28;;;;;;;1.92;1.13;;;17.00;60.90;;;;;;20727795;28;20117;-78
2022/05/07 14:06:28;;;;;;;2.40;1.15;;;17.10;60.70;;;;;;20707392;28;20128;-77
2022/05/07 14:16:29;;;;;;;1.53;1.00;;;17.20;60.60;;;;;;20729574;28;20425;-77
2022/05/07 14:26:30;;;;;;;1.60;1.00;;;17.20;60.50;;;;;;20675924;28;21059;-80
2022/05/07 14:36:32;;;;;;;1.55;1.02;;;17.30;60.30;;;;;;20709252;28;20033;-80
2022/05/07 14:46:34;;;;;;;1.67;1.33;;;17.30;60.20;;;;;;20731381;28;20474;-81
2022/05/07 14:56:34;;;;;;;1.30;1.15;;;17.40;60.10;;;;;;20726607;28;20116;-79
2022/05/07 15:06:35;;;;;;;1.75;1.20;;;17.50;60.10;;;;;;20680707;28;20558;-81
2022/05/07 15:16:35;;;;;;;1.92;1.05;;;17.40;60.10;;;;;;20709792;28;20042;-78
2022/05/07 15:26:36;;;;;;;1.20;0.98;;;17.30;60.20;;;;;;20704968;28;20050;-76
2022/05/07 15:36:49;;;;;;;1.80;0.90;;;17.30;60.40;;;;;;20689292;28;20458;-78
2022/05/07 15:46:49;;;;;;;1.73;1.00;;;17.20;60.50;;;;;;20713206;28;20096;-75
2022/05/07 15:56:50;;;;;;;1.70;1.13;;;17.20;60.50;;;;;;20687454;28;20473;-75
2022/05/07 16:06:50;;;;;;;3.17;1.30;;;17.20;60.50;;;;;;20720764;28;20042;-76
2022/05/07 16:16:51;;;;;;;1.33;1.10;;;17.20;60.50;;;;;;20723727;28;20034;-76
2022/05/07 16:26:52;;;;;;;3.40;0.90;;;17.20;60.60;;;;;;20687652;28;20121;-75
2022/05/07 16:36:52;;;;;;;1.25;0.90;;;17.20;61.30;;;;;;20686301;28;20040;-75
2022/05/07 16:46:53;;;;;;;1.77;1.30;;;17.20;60.60;;;;;;20733725;28;20038;-76
2022/05/07 16:56:56;;;;;;;1.88;1.40;;;17.20;60.70;;;;;;20701149;28;20038;-76
2022/05/07 17:06:56;;;;;;;2.72;0.88;;;17.10;60.70;;;;;;20698280;28;20485;-75
2022/05/07 17:16:57;;;;;;;1.85;0.90;;;17.20;60.70;;;;;;20713608;28;20040;-74
2022/05/07 17:26:58;;;;;;;1.27;1.10;;;17.30;60.70;;;;;;20730045;28;20457;-74
2022/05/07 17:36:59;;;;;;;4.65;1.40;;;17.20;60.70;;;;;;20681085;28;20040;-74
2022/05/07 17:47:00;;;;;;;3.80;1.13;;;17.30;60.90;;;;;;20695791;28;20121;-74
2022/05/07 17:57:00;;;;;;;5.50;1.23;;;17.20;61.20;;;;;;20713092;28;20300;-73
2022/05/07 18:07:01;;;;;;;2.13;1.27;;;17.30;61.40;;;;;;20693197;28;20053;-72
2022/05/07 18:17:01;;;;;;;2.25;1.08;;;17.20;61.50;;;;;;20717009;28;20038;-73
2022/05/07 18:27:02;;;;;;;1.85;1.00;;;17.20;61.60;;;;;;20727402;28;20511;-71
2022/05/07 18:47:22;;;;;;;1.80;0.93;;;17.20;61.80;;;;;;20734136;28;20105;-72
2022/05/07 19:07:43;;;;;;;2.50;1.00;;;17.10;62.00;;;;;;20727027;28;20053;-73
2022/05/07 19:17:43;;;;;;;1.30;0.98;;;17.10;62.10;;;;;;20747369;28;20033;-72
2022/05/07 19:27:46;;;;;;;1.40;1.00;;;17.10;62.20;;;;;;20722873;28;20521;-72
2022/05/07 19:37:49;;;;;;;1.48;0.95;;;17.10;62.30;;;;;;20690446;28;20512;-72
2022/05/07 19:47:51;;;;;;;1.50;1.00;;;17.00;62.30;;;;;;20721457;28;20034;-72
2022/05/07 19:57:52;;;;;;;1.73;1.15;;;17.00;62.40;;;;;;20721661;28;20037;-72
2022/05/07 20:07:54;;;;;;;2.50;1.10;;;17.00;62.40;;;;;;20720414;28;20041;-72
2022/05/07 20:17:54;;;;;;;2.10;1.13;;;17.10;62.40;;;;;;20738519;28;20044;-74
2022/05/07 20:27:56;;;;;;;2.08;1.20;;;17.00;62.40;;;;;;20741301;28;20037;-74
2022/05/07 20:37:57;;;;;;;1.55;1.00;;;17.00;62.50;;;;;;20733699;28;20540;-74
2022/05/07 20:47:58;;;;;;;2.92;1.38;;;17.00;62.50;;;;;;20700829;28;20034;-74
2022/05/07 20:57:58;;;;;;;1.90;1.38;;;17.00;62.50;;;;;;20683188;28;20033;-73
2022/05/07 21:07:59;;;;;;;1.58;1.27;;;17.10;62.60;;;;;;20715336;28;20049;-74
2022/05/07 21:18:00;;;;;;;2.30;1.17;;;17.00;62.50;;;;;;20698467;28;20121;-74
2022/05/07 21:28:01;;;;;;;2.65;1.40;;;17.00;62.50;;;;;;20715397;28;20077;-74
2022/05/07 21:38:01;;;;;;;3.83;1.42;;;17.00;62.50;;;;;;20712147;28;20132;-74
2022/05/07 21:48:02;;;;;;;2.50;1.55;;;17.00;62.50;;;;;;20712428;28;20410;-75
2022/05/07 21:58:03;;;;;;;2.67;1.70;;;17.00;62.60;;;;;;20679777;28;20136;-74
2022/05/07 22:08:04;;;;;;;2.95;1.73;;;16.90;62.60;;;;;;20694840;28;20034;-73
2022/05/07 22:18:05;;;;;;;3.33;2.00;;;16.90;62.60;;;;;;20693958;28;20053;-73
2022/05/07 22:28:06;;;;;;;4.22;2.40;;;16.90;62.70;;;;;;20687067;28;20125;-74
2022/05/07 22:38:07;;;;;;;2.78;2.08;;;16.90;62.80;;;;;;20725822;28;20084;-73
2022/05/07 22:48:07;;;;;;;2.47;1.90;;;16.90;62.80;;;;;;20693024;28;20033;-74
2022/05/07 22:58:08;;;;;;;3.55;2.03;;;16.90;62.80;;;;;;20692821;28;20141;-74
2022/05/07 23:08:09;;;;;;;3.20;2.00;;;16.90;62.90;;;;;;20724018;28;20433;-74
2022/05/07 23:18:09;;;;;;;2.45;1.67;;;16.90;63.00;;;;;;20691700;28;20034;-74
2022/05/07 23:28:11;;;;;;;1.92;1.30;;;16.90;63.00;;;;;;20689640;28;20180;-73
2022/05/07 23:38:12;;;;;;;3.10;1.83;;;16.90;63.00;;;;;;20690053;28;20037;-73
2022/05/07 23:48:12;;;;;;;2.90;1.65;;;16.80;62.90;;;;;;20705405;28;20030;-73
2022/05/07 23:58:13;;;;;;;4.60;2.03;;;16.90;63.00;;;;;;20705342;28;20370;-73
